Wetterdaten der Wetterstation 36433 Bad Salzungen (Zelleroda)

Letzte Wetterlage 03.09.2015 10:45
Wetterdiagramm
Tabellarische Darstellung
Datum Temperatur Windchill Feuchte Luftdruck Windrichtung Windstärke Niederschlag
03.09.2015 10:45 17,5 °C 17,5 °C 76 % 1017,4 hPa 96 0.0 0 l/m²
03.09.2015 10:40 17,5 °C 17,5 °C 78 % 1017,4 hPa 99 0.0 0 l/m²
03.09.2015 10:30 17,0 °C 17,0 °C 78 % 1017,5 hPa 20 0.0 0 l/m²
03.09.2015 10:25 16,8 °C 16,8 °C 80 % 1017,6 hPa 16 0.0 0 l/m²
03.09.2015 10:20 16,7 °C 16,7 °C 80 % 1017,5 hPa 39 0.0 0 l/m²
03.09.2015 10:15 16,7 °C 16,7 °C 80 % 1017,4 hPa 295 0.0 0 l/m²
03.09.2015 10:10 16,7 °C 16,7 °C 80 % 1017,5 hPa 11 0.0 0 l/m²
03.09.2015 10:05 16,9 °C 16,9 °C 76 % 1017,3 hPa 12 0.0 0 l/m²
03.09.2015 10:00 16,9 °C 16,9 °C 75 % 1017,5 hPa 1 0.0 0 l/m²
03.09.2015 09:55 17,4 °C 17,4 °C 73 % 1017,5 hPa 162 0.0 0 l/m²
03.09.2015 09:50 18,4 °C 18,4 °C 73 % 1017,4 hPa 90 0.0 0 l/m²
03.09.2015 09:45 18,8 °C 18,8 °C 78 % 1017,5 hPa 90 0.0 0 l/m²
03.09.2015 09:40 18,0 °C 18,0 °C 81 % 1017,5 hPa 90 0.0 0 l/m²
03.09.2015 09:35 18,2 °C 18,2 °C 85 % 1017,6 hPa 90 0.0 0 l/m²
03.09.2015 09:30 17,1 °C 17,1 °C 88 % 1017,6 hPa 84 0.0 0 l/m²
03.09.2015 09:25 16,8 °C 16,8 °C 93 % 1017,8 hPa 85 0.0 0 l/m²
03.09.2015 09:20 16,6 °C 16,6 °C 95 % 1017,8 hPa 90 0.0 0 l/m²
03.09.2015 09:15 15,9 °C 15,9 °C 97 % 1017,7 hPa 90 0.5 0 l/m²
03.09.2015 09:10 13,9 °C 13,9 °C 99 % 1017,7 hPa 90 0.0 0 l/m²
03.09.2015 09:00 13,2 °C 13,2 °C 98 % 1017,7 hPa 90 0.0 0 l/m²
03.09.2015 08:55 12,9 °C 12,9 °C 97 % 1017,6 hPa 90 0.0 0 l/m²
03.09.2015 08:50 12,9 °C 12,9 °C 97 % 1017,7 hPa 92 0.0 0 l/m²
03.09.2015 08:45 12,8 °C 12,8 °C 97 % 1017,8 hPa 92 0.0 0 l/m²
03.09.2015 08:40 12,3 °C 12,3 °C 97 % 1017,8 hPa 90 0.0 0 l/m²
03.09.2015 08:35 12,2 °C 12,2 °C 97 % 1017,7 hPa 90 0.0 0 l/m²
Neue Wetterwarnung

Neue Niederschlagsmeldung
Neue Meldung
Regen Liveticker
    sehr starker Regen/Gewitter
    starker Regen/Gewitter
    mäßiger bis starker Regen
    mäßiger Regen
    leichter bis mäßiger Regen
    kein Regen